航空気象通報

ウインドサーファーのための航空気象通報による風予報です。

11/28-11/29の航空気象通報(国内、海外)

2012年11月28日 23時24分33秒 | TAF

羽田空港
TAF RJTT 280839Z 2809/2912 02006KT 9999 FEW020
BECMG 2814/2816 22012KT
BECMG 2900/2903 36006KT
日本時間28日18-23時:020度から6ノットの風
23時-29日01時:風が変化
01-09時:220度から12ノットの風
09-12時:風が変化
12-21時:360度から6ノットの風

静岡空港
TAF RJNS 280844Z 2809/2912 28010KT 9999 FEW030
TEMPO 2900/2903 27016G28KT
日本時間28日18時-29日21時:280度から10ノットの風
但し、09-12時:270度から16ノット、突風28ノット

福岡空港
TAF RJFF 280848Z 2809/2912 16010KT 9999 FEW035 SCT045
BECMG 2821/2824 01005KT
BECMG 2909/2912 12004KT
日本時間27日18時-28日06時:160度から10ノットの風
06-09時:風が変化
09-18時:010度から5ノットの風
18-21時:風が変化
21時:120度から4ノットの風

那覇空港
TAF ROAH 280838Z 2809/2912 14010KT 9999 FEW020 BKN040
TEMPO 2818/2821 4000 SHRA FEW010 BKN020 FEW025CB
TEMPO 2900/2903 17020G30KT 3000 +SHRA FEW010 BKN020 SCT025CB
BECMG 2903/2906 33018KT
TEMPO 2903/2906 33020G30KT 3000 +SHRA FEW010 BKN020 SCT025CB
日本時間28日18時-29日12時:140度から10ノットの風
但し、29日09-12時の間:ときどき170度から20ノット、突風30ノット
12-15時:風が変化
15-21時:330度から18ノットの風
但し、29日12-15時の間:ときどき330度から20ノット、突風30ノット

但し、29日03-15時の間:ときどき

マウイのカフルイ空港
PHOG 281120Z 2812/2912 05005KT P6SM SCT050
FM282000 04012G18KT P6SM SCT050
FM290300 04010KT P6SM SCT050
FM290700 14004KT P6SM SCT050 AMD LTD TO WX VIS AND WIND TIL 281600
ハワイ時間28日02-10時:050度から5ノットの風
10-17時:040度から12ノット、突風18ノット
17-21時:040度から10ノットの風
21時-29日02時:140度から4ノットの風

サイパン空港
PGSN 281120Z 2812/2912 05010KT P6SM FEW020
マリアナ時間28日22時-29日22時:050度から10ノットの風

コメント
この記事をはてなブックマークに追加

11/27-11/28の航空気象通報(国内、海外)

2012年11月27日 23時50分35秒 | TAF

羽田空港
TAF RJTT 270838Z 2709/2812 36016KT 9999 FEW030
BECMG 2716/2718 04006KT
BECMG 2800/2803 13006KT
BECMG 2806/2809 20010KT
日本時間27日18時-28日01時:360度から16ノットの風
01-03時:風が変化
03-09時:040度から6ノットの風
09-12時:風が変化
12-15時:130度から6ノットの風
15-18時:風が変化
18-21時:200度から10ノットの風
但し、15-21時の間:ときどき220度から30ノット、突風40ノット

静岡空港
TAF RJNS 270842Z 2709/2812 30010KT 9999 FEW020 SCT040
BECMG 2712/2714 03006KT
BECMG 2803/2806 22008KT
日本時間27日18-21時:300度から10ノットの風
21-23時:風が変化
23時-28日12時:030度から6ノットの風
12-15時:風が変化
15-21時:220度から8ノットの風

福岡空港
TAF RJFF 270846Z 2709/2812 15007KT 9999 FEW030 SCT045
日本時間27日18時-28日21時:150度から7ノットの風

那覇空港
TAF ROAH 270837Z 2709/2812 05007KT 9999 FEW035
BECMG 2800/2803 13008KT
日本時間27日18時-28日09時:050度から7ノットの風
09-12時:風が変化
12-21時:130度から8ノットの風

マウイのカフルイ空港
PHOG 271134Z 2712/2812 04006KT P6SM FEW035 BKN050
FM272000 04015G22KT P6SM FEW035 SCT060
FM280500 04010KT P6SM FEW035 SCT060
FM280800 04006KT P6SM FEW035 SCT060 AMD LTD TO WX VIS AND WIND TIL 271600
ハワイ時間27日02-10時:040度から6ノットの風

10-19時:040度から15ノット、突風22ノット
19-22時:040度から10ノットの風
22時-28日02時:040度から6ノットの風

サイパン空港
PGSN 271120Z 2712/2812 05008KT P6SM FEW020
マリアナ時間27日22時-28日22時:050度から8ノットの風

コメント
この記事をはてなブックマークに追加

11/25-11/26の航空気象通報(国内、海外)

2012年11月25日 22時46分58秒 | TAF

羽田空港
TAF RJTT 250844Z 2509/2612 15012KT 9999 FEW030
BECMG 2518/2521 34005KT
TEMPO 2518/2524 FEW006 BKN009
BECMG 2600/2603 18018KT
TEMPO 2606/2609 22030G40KT 4000 SHRA BR
TEMPO 2609/2612 22030G40KT 3000 TSRA BR FEW010 BKN015 FEW020CB
日本時間25日18時-26日03時:150度から12ノットの風
03-06時:風が変化
06-09時:340度から5ノットの風
09-12時:風が変化
12-21時:180度から18ノットの風
但し、15-21時の間:ときどき220度から30ノット、突風40ノット

但し、26日03-06時の間:ときどき
但し、26日15-18時の間:ときどき
但し、26日18-21時の間:ときどき

静岡空港
TAF RJNS 250845Z 2509/2612 30008KT 9999 FEW020 SCT050
BECMG 2600/2603 21012KT
BECMG 2603/2606 21022G35KT
TEMPO 2603/2606 4000 SHRA BR FEW004 BKN008
TEMPO 2606/2609 21032G45KT 3000 TSRA BR FEW004 BKN006 FEW020CB
BECMG 2609/2612 27022G34KT
日本時間25日18時-26日09時:300度から8ノットの風
09-12時:風が変化
12時:210度から12ノットの風
12-15時:風が変化
15-18時:210度から22ノット、突風35ノット
但し、15-18時の間:ときどき210度から32ノット、突風45ノット
18-21時:風が変化
21時:270度から22ノット、突風34ノット
但し、26日15-21時の間:ときどき220度から30ノット、突風40ノット

但し、26日12-15時の間:ときどき
但し、26日15-18時の間:ときどき

福岡空港
TAF RJFF 250850Z 2509/2612 15006KT 9999 FEW030 SCT040
TEMPO 2518/2524 3000 SHRA BR
BECMG 2600/2603 31015KT
TEMPO 2600/2603 31015G25KT 3000 SHRA BR FEW005 BKN008 BKN010
TEMPO 2603/2606 31015G25KT
日本時間25日18時-26日09時:150度から6ノットの風
09-12時:風が変化
12-21時:310度から15ノットの風
但し、09-15時の間:ときどき310度から15ノット、突風25ノット

但し、26日03-09時の間:ときどき
但し、26日09-12時の間:ときどき

那覇空港
TAF ROAH 250840Z 2509/2612 16012KT 9999 FEW035
BECMG 2521/2524 22020KT
BECMG 2600/2603 36022KT
TEMPO 2600/2606 36025G35KT 3000 SHRA SCT010 BKN020 FEW025CB
TEMPO 2606/2609 3000 SHRA SCT010 BKN020 FEW025CB
日本時間25日18時-26日06時:160度から12ノットの風
06-09時:風が変化
09時:220度から20ノットの風
09-12時:風が変化
12-21時:360度から22ノットの風
但し、09-15時の間:ときどき360度から25ノット、突風35ノット

但し、26日09-18時の間:ときどき

マウイのカフルイ空港
PHOG 251120Z 2512/2612 04008KT P6SM SCT030 BKN250
FM251700 04012KT P6SM SCT030 BKN250
FM252000 04015G25KT P6SM SCT040 BKN250
FM260400 04012KT P6SM SCT040 BKN250
FM260600 04008KT P6SM SCT040 BKN250 AMD LTD TO WX VIS AND WIND TIL 251600
ハワイ時間25日02-07時:040度から8ノットの風
07-10時:040度から12ノットの風
10-18時:040度から15ノット、突風25ノット
18-20時:040度から12ノットの風
20時-26日02時:040度から8ノットの風

サイパン空港
PGSN 251120Z 2512/2612 03007KT P6SM VCSH FEW020 SCT050
マリアナ時間25日22時-26日22時:030度から7ノットの風

コメント
この記事をはてなブックマークに追加

11/24-11/25の航空気象通報(国内、海外)

2012年11月24日 23時28分14秒 | TAF

羽田空港
TAF RJTT 240838Z 2409/2512 02014KT 9999 FEW020 SCT050
BECMG 2503/2506 10008KT
日本時間24日18時-25日12時:020度から14ノットの風
12-15時:風が変化
15-21時:100度から8ノットの風

静岡空港
TAF RJNS 240840Z 2409/2512 24006KT 9999 FEW030 SCT050
BECMG 2410/2412 06006KT
BECMG 2509/2512 32006KT
日本時間24日18-19時:240度から6ノットの風
19-21時:風が変化
21時-25日18時:060度から6ノットの風
18-21時:風が変化
21時:320度から6ノットの風

福岡空港
TAF RJFF 240843Z 2409/2512 33005KT 9999 FEW030 SCT045
BECMG 2411/2413 16005KT
日本時間24日18-20時:330度から5ノットの風
20-22時:風が変化
22時-25日21時:160度から5ノットの風

那覇空港
TAF ROAH 240837Z 2409/2512 03012KT 9999 SCT030
BECMG 2506/2509 11007KT
日本時間24日18時-25日15時:030度から12ノットの風
15-18時:風が変化
18時-25日21時:110度から7ノットの風

マウイのカフルイ空港
PHOG 241140Z 2412/2512 13004KT P6SM FEW050
FM242000 03012G18KT P6SM FEW035 SCT060
FM250600 13004KT P6SM FEW050 AMD LTD TO WX VIS AND WIND TIL 241600
ハワイ時間24日02-10時:130度から4ノットの風
10-20時:030度から12ノット、突風18ノット
20時-25日02時:130度から4ノットの風

サイパン空港
PGSN 241120Z 2412/2512 04007KT P6SM FEW020 SCT100
FM250000 05013KT P6SM VCSH FEW020 SCT050
FM250900 06009KT P6SM VCSH FEW020 SCT050
マリアナ時間24日22時-25日10時:040度から7ノットの風
10-19時:050度から13ノットの風
19-22時:050度から9ノットの風

コメント
この記事をはてなブックマークに追加

11/23-11/24の航空気象通報(国内、海外)

2012年11月23日 23時33分33秒 | TAF

羽田空港
TAF RJTT 230852Z 2309/2412 01013KT 9999 FEW015 BKN035
日本時間23日18時-24日21時:010度から13ノットの風

静岡空港
TAF RJNS 230849Z 2309/2412 30004KT 9999 FEW015 BKN030
BECMG 2318/2321 04006KT
TEMPO 2318/2324 4000 -RA BR
日本時間23日18時-24日03時:300度から4ノットの風
03-06時:風が変化
06-21時:040度から6ノットの風

但し、24日03-09時の間:ときどき

福岡空港
TAF RJFF 230839Z 2309/2412 36006KT 8000 FEW030 SCT040
日本時間23日18時-24日21時:360度から6ノットの風

那覇空港
TAF ROAH 230840Z 2309/2412 28008KT 9999 FEW015 BKN035
BECMG 2311/2313 35020KT
日本時間23日18-20時:280度から8ノットの風
20-22時:風が変化
22時-24日21時:350度から20ノットの風

マウイのカフルイ空港
PHOG 231130Z 2312/2412 VRB05KT P6SM FEW040
FM232000 01009KT P6SM FEW030 BKN050
FM240500 VRB05KT P6SM SCT050 AMD LTD TO WX VIS AND WIND TIL 231600
ハワイ時間23日02-10時:風向不定5ノットの風

10-19時:010度から9ノットの風

19時-24日02時:風向不定5ノットの風

サイパン空港
PGSN 231120Z 2312/2412 05008KT P6SM VCSH FEW020 SCT050 SCT100
FM240000 05011G18KT P6SM VCSH FEW020 SCT050
FM240900 05009KT P6SM VCSH FEW020 SCT050
マリアナ時間23日22時-24日10時:050度から8ノットの風
10-19時:050度から11ノット、突風18ノット
19-22時:050度から9ノットの風

コメント
この記事をはてなブックマークに追加